^^
Station Historical Data
Daily Summary for July 11, 2018 Units:  English    Metric   Both
« Previous Day
Next Day »
Daily Weekly Monthly Yearly Custom
  High: Low: Average:
Temperature: 82.6 °F 52.2 °F 68.7 °F
Dew Point: 64.7 °F 51.6 °F 59.4 °F
Humidity: 98% 50% 75%
Wind Speed: 6.9mph 0.0mph 1.4mph
Wind Gust: 4.7mph - -
Wind- - SSE
Pressure: 30.25 in 30.13 in -
Precipitation: 0.00 in    
Historical Graphs
 
 
Tabular Data for July 11, 2018
Time Temperature Dew Point Pressure Wind Wind Speed Wind Gust Humidity Rainfall Rate (Hourly) solar Conditions
00:04 61.0 °F 59.8 °F 30.14 in Calm     96% 0.00 in 0.00 W/m2 CLR
00:09 60.6 °F 59.5 °F 30.14 in Calm     96% 0.00 in 0.00 W/m2 CLR
00:14 60.6 °F 59.5 °F 30.14 in Calm     96% 0.00 in 0.00 W/m2 CLR
00:19 60.6 °F 59.5 °F 30.14 in Calm     96% 0.00 in 0.00 W/m2 CLR
00:24 60.3 °F 59.1 °F 30.14 in Calm     96% 0.00 in 0.00 W/m2 CLR
00:29 60.3 °F 59.7 °F 30.14 in Calm     98% 0.00 in 0.00 W/m2 CLR
00:34 60.3 °F 59.7 °F 30.14 in Calm     98% 0.00 in 0.00 W/m2 CLR
00:39 60.1 °F 59.5 °F 30.14 in Calm     98% 0.00 in 0.00 W/m2 CLR
00:44 59.9 °F 59.3 °F 30.15 in Calm     98% 0.00 in 0.00 W/m2 CLR
00:49 59.9 °F 59.3 °F 30.15 in Calm     98% 0.00 in 0.00 W/m2 CLR
00:54 59.4 °F 58.8 °F 30.15 in Calm     98% 0.00 in 0.00 W/m2 CLR
00:59 59.4 °F 58.8 °F 30.15 in Calm     98% 0.00 in 0.00 W/m2 CLR
01:04 59.2 °F 58.6 °F 30.15 in Calm     98% 0.00 in 0.00 W/m2 CLR
01:09 59.2 °F 58.6 °F 30.16 in Calm     98% 0.00 in 0.00 W/m2 CLR
01:14 59.0 °F 58.4 °F 30.16 in Calm     98% 0.00 in 0.00 W/m2 CLR
01:19 58.8 °F 58.3 °F 30.16 in Calm     98% 0.00 in 0.00 W/m2 CLR
01:24 58.5 °F 57.9 °F 30.16 in Calm     98% 0.00 in 0.00 W/m2 CLR
01:29 58.5 °F 57.9 °F 30.16 in Calm     98% 0.00 in 0.00 W/m2 CLR
01:34 58.3 °F 57.7 °F 30.16 in Calm     98% 0.00 in 0.00 W/m2 CLR
01:39 58.3 °F 57.7 °F 30.16 in Calm     98% 0.00 in 0.00 W/m2 CLR
01:44 57.7 °F 57.2 °F 30.16 in Calm     98% 0.00 in 0.00 W/m2 CLR
01:49 57.7 °F 57.2 °F 30.16 in Calm     98% 0.00 in 0.00 W/m2 CLR
01:54 57.7 °F 57.2 °F 30.16 in Calm     98% 0.00 in 0.00 W/m2 CLR
01:59 57.6 °F 57.0 °F 30.16 in Calm     98% 0.00 in 0.00 W/m2 CLR
02:04 57.4 °F 56.8 °F 30.16 in Calm     98% 0.00 in 0.00 W/m2 CLR
02:09 57.2 °F 56.6 °F 30.16 in Calm     98% 0.00 in 0.00 W/m2 CLR
02:14 57.2 °F 56.6 °F 30.16 in Calm     98% 0.00 in 0.00 W/m2 CLR
02:19 57.4 °F 56.8 °F 30.16 in Calm     98% 0.00 in 0.00 W/m2 CLR
02:24 57.2 °F 56.6 °F 30.15 in Calm     98% 0.00 in 0.00 W/m2 CLR
02:29 56.8 °F 56.3 °F 30.15 in Calm     98% 0.00 in 0.00 W/m2 CLR
02:34 56.7 °F 56.1 °F 30.16 in Calm     98% 0.00 in 0.00 W/m2 CLR
02:39 56.7 °F 56.1 °F 30.15 in Calm     98% 0.00 in 0.00 W/m2 CLR
02:44 56.5 °F 55.9 °F 30.16 in Calm     98% 0.00 in 0.00 W/m2 CLR
02:49 56.3 °F 55.7 °F 30.15 in Calm     98% 0.00 in 0.00 W/m2 CLR
02:54 55.9 °F 55.4 °F 30.16 in Calm     98% 0.00 in 0.00 W/m2 CLR
02:59 55.9 °F 55.4 °F 30.16 in Calm     98% 0.00 in 0.00 W/m2 CLR
03:04 55.9 °F 55.4 °F 30.16 in Calm     98% 0.00 in 0.00 W/m2 CLR
03:09 55.6 °F 55.0 °F 30.16 in Calm     98% 0.00 in 0.00 W/m2 CLR
03:14 55.2 °F 54.7 °F 30.18 in Calm     98% 0.00 in 0.00 W/m2 CLR
03:19 55.2 °F 54.7 °F 30.18 in Calm     98% 0.00 in 0.00 W/m2 CLR
03:24 55.0 °F 54.5 °F 30.18 in Calm     98% 0.00 in 0.00 W/m2 CLR
03:29 55.0 °F 54.5 °F 30.18 in Calm     98% 0.00 in 0.00 W/m2 CLR
03:34 55.0 °F 54.5 °F 30.18 in Calm     98% 0.00 in 0.00 W/m2 CLR
03:39 54.9 °F 54.3 °F 30.18 in Calm     98% 0.00 in 0.00 W/m2 CLR
03:44 54.7 °F 54.1 °F 30.18 in Calm     98% 0.00 in 0.00 W/m2 CLR
03:49 54.3 °F 53.8 °F 30.18 in Calm     98% 0.00 in 0.00 W/m2 CLR
03:54 54.1 °F 53.6 °F 30.18 in Calm     98% 0.00 in 0.00 W/m2 CLR
03:59 54.1 °F 53.6 °F 30.18 in Calm     98% 0.00 in 0.00 W/m2 CLR
04:04 54.0 °F 53.4 °F 30.18 in Calm     98% 0.00 in 0.00 W/m2 CLR
04:09 54.0 °F 53.4 °F 30.18 in Calm     98% 0.00 in 0.00 W/m2 CLR
04:14 53.8 °F 53.2 °F 30.17 in Calm     98% 0.00 in 0.00 W/m2 CLR
04:19 53.8 °F 53.2 °F 30.18 in Calm     98% 0.00 in 0.00 W/m2 CLR
04:24 53.8 °F 53.2 °F 30.18 in Calm     98% 0.00 in 0.00 W/m2 CLR
04:29 53.4 °F 52.9 °F 30.18 in Calm     98% 0.00 in 0.00 W/m2 CLR
04:34 53.4 °F 52.9 °F 30.19 in Calm     98% 0.00 in 0.00 W/m2 CLR
04:39 53.1 °F 52.5 °F 30.19 in Calm     98% 0.00 in 0.00 W/m2 CLR
04:44 53.1 °F 52.5 °F 30.19 in Calm     98% 0.00 in 0.00 W/m2 CLR
04:49 53.1 °F 52.5 °F 30.19 in Calm     98% 0.00 in 0.00 W/m2 CLR
04:54 52.9 °F 52.3 °F 30.19 in Calm     98% 0.00 in 0.00 W/m2 CLR
04:59 52.5 °F 52.0 °F 30.19 in Calm     98% 0.00 in 0.00 W/m2 CLR
05:04 52.5 °F 52.0 °F 30.19 in Calm     98% 0.00 in 0.00 W/m2 CLR
05:09 52.5 °F 52.0 °F 30.19 in Calm     98% 0.00 in 94.60 W/m2 CLR
05:14 52.5 °F 52.0 °F 30.20 in Calm     98% 0.00 in 163.30 W/m2 CLR
05:19 52.5 °F 52.0 °F 30.20 in Calm     98% 0.00 in 175.40 W/m2 CLR
05:24 52.5 °F 52.0 °F 30.20 in Calm     98% 0.00 in 191.60 W/m2 CLR
05:29 52.3 °F 51.8 °F 30.20 in Calm     98% 0.00 in 199.70 W/m2 CLR
05:34 52.3 °F 51.8 °F 30.20 in Calm     98% 0.00 in 205.70 W/m2 CLR
05:39 52.2 °F 51.6 °F 30.20 in Calm     98% 0.00 in 222.90 W/m2 CLR
05:44 52.2 °F 51.6 °F 30.20 in Calm     98% 0.00 in 229.00 W/m2 CLR
05:49 52.3 °F 51.8 °F 30.20 in Calm     98% 0.00 in 229.00 W/m2 CLR
05:54 52.2 °F 51.6 °F 30.20 in Calm     98% 0.00 in 237.00 W/m2 CLR
05:59 52.2 °F 51.6 °F 30.20 in Calm     98% 0.00 in 240.10 W/m2 CLR
06:04 52.2 °F 51.6 °F 30.20 in Calm     98% 0.00 in 240.10 W/m2 CLR
06:09 52.2 °F 51.6 °F 30.21 in Calm     98% 0.00 in 242.10 W/m2 CLR
06:14 52.2 °F 51.6 °F 30.21 in Calm     98% 0.00 in 246.10 W/m2 CLR
06:19 52.3 °F 51.8 °F 30.21 in Calm     98% 0.00 in 247.10 W/m2 CLR
06:24 52.5 °F 52.0 °F 30.21 in Calm     98% 0.00 in 249.20 W/m2 CLR
06:29 52.5 °F 52.0 °F 30.22 in Calm     98% 0.00 in 253.20 W/m2 CLR
06:34 52.9 °F 52.3 °F 30.21 in Calm     98% 0.00 in 257.20 W/m2 CLR
06:39 53.2 °F 52.7 °F 30.22 in Calm     98% 0.00 in 262.30 W/m2 CLR
06:44 53.4 °F 52.9 °F 30.21 in Calm     98% 0.00 in 269.40 W/m2 CLR
06:49 53.8 °F 53.2 °F 30.21 in Calm     98% 0.00 in 273.40 W/m2 CLR
06:54 54.0 °F 53.4 °F 30.23 in Calm     98% 0.00 in 273.40 W/m2 CLR
06:59 54.7 °F 54.1 °F 30.21 in Calm     98% 0.00 in 276.40 W/m2 CLR
07:04 54.9 °F 54.3 °F 30.23 in Calm     98% 0.00 in 276.40 W/m2 CLR
07:09 55.8 °F 55.2 °F 30.23 in Calm     98% 0.00 in 286.50 W/m2 CLR
07:14 56.3 °F 55.7 °F 30.23 in Calm     98% 0.00 in 296.60 W/m2 CLR
07:19 56.5 °F 55.9 °F 30.23 in Calm     98% 0.00 in 298.70 W/m2 CLR
07:24 57.7 °F 57.2 °F 30.23 in Calm     98% 0.00 in 300.70 W/m2 CLR
07:29 57.7 °F 57.2 °F 30.24 in Calm     98% 0.00 in 299.70 W/m2 CLR
07:34 61.7 °F 59.0 °F 30.23 in Calm     91% 0.00 in 298.70 W/m2 CLR
07:39 63.0 °F 59.3 °F 30.23 in Calm     88% 0.00 in 299.70 W/m2 CLR
07:44 64.4 °F 59.8 °F 30.23 in Calm     85% 0.00 in 299.70 W/m2 CLR
07:49 64.9 °F 60.3 °F 30.22 in SSW 1.2 mph 0.2 mph 85% 0.00 in 299.70 W/m2 CLR
07:54 67.3 °F 61.2 °F 30.22 in Calm     81% 0.00 in 297.60 W/m2 CLR
07:59 67.6 °F 60.9 °F 30.22 in ESE 2.3 mph 0.4 mph 79% 0.00 in 304.70 W/m2 CLR
08:04 67.8 °F 61.8 °F 30.22 in SW 1.2 mph 0.4 mph 81% 0.00 in 310.80 W/m2 CLR
08:09 68.9 °F 61.8 °F 30.21 in SE 3.5 mph 2.0 mph 78% 0.00 in 310.80 W/m2 CLR
08:14 69.6 °F 62.5 °F 30.22 in SSE 2.0 mph 0.9 mph 78% 0.00 in 310.80 W/m2 CLR
08:19 70.5 °F 62.2 °F 30.22 in SE 2.9 mph 0.9 mph 75% 0.00 in 402.70 W/m2 CLR
08:24 71.1 °F 62.4 °F 30.22 in SSW 2.9 mph 1.1 mph 74% 0.00 in 428.90 W/m2 CLR
08:29 71.4 °F 62.3 °F 30.22 in Calm     73% 0.00 in 465.30 W/m2 CLR
08:34 71.8 °F 60.6 °F 30.23 in South 5.8 mph 3.4 mph 68% 0.00 in 525.90 W/m2 CLR
08:39 71.8 °F 60.6 °F 30.23 in ESE 3.5 mph 2.5 mph 68% 0.00 in 709.70 W/m2 CLR
08:44 72.9 °F 60.8 °F 30.23 in ENE 3.5 mph 2.0 mph 66% 0.00 in 809.70 W/m2 CLR
08:49 71.1 °F 60.4 °F 30.23 in South 2.3 mph 1.8 mph 69% 0.00 in 534.00 W/m2 CLR
08:54 71.1 °F 60.8 °F 30.24 in NNE 2.3 mph 2.0 mph 70% 0.00 in 387.50 W/m2 CLR
08:59 70.5 °F 60.3 °F 30.24 in South 2.0 mph 1.1 mph 70% 0.00 in 427.90 W/m2 CLR
09:04 70.9 °F 60.6 °F 30.24 in SE 2.3 mph 1.1 mph 70% 0.00 in 427.90 W/m2 CLR
09:09 71.4 °F 61.1 °F 30.24 in SE 2.3 mph   70% 0.00 in 427.90 W/m2 CLR
09:14 72.9 °F 62.5 °F 30.24 in South 1.2 mph 0.2 mph 70% 0.00 in 767.30 W/m2 CLR
09:19 73.8 °F 61.7 °F 30.24 in WNW 2.3 mph 1.8 mph 66% 0.00 in 850.10 W/m2 CLR
09:24 74.5 °F 62.4 °F 30.24 in NNW 1.2 mph 1.3 mph 66% 0.00 in 853.10 W/m2 CLR
09:29 73.9 °F 61.9 °F 30.24 in South 3.5 mph 2.0 mph 66% 0.00 in 858.20 W/m2 CLR
09:34 75.4 °F 61.9 °F 30.24 in ESE 3.5 mph 1.3 mph 63% 0.00 in 860.20 W/m2 CLR
09:39 75.4 °F 61.9 °F 30.24 in SSW 2.3 mph 1.6 mph 63% 0.00 in 867.30 W/m2 CLR
09:44 74.8 °F 62.7 °F 30.24 in Calm   0.2 mph 66% 0.00 in 845.10 W/m2 CLR
09:49 75.0 °F 62.5 °F 30.24 in ENE 2.3 mph 1.1 mph 65% 0.00 in 850.10 W/m2 CLR
09:54 74.8 °F 61.4 °F 30.24 in ESE 3.5 mph 1.3 mph 63% 0.00 in 850.10 W/m2 CLR
09:59 75.6 °F 62.1 °F 30.24 in SW 4.0 mph 2.7 mph 63% 0.00 in 839.00 W/m2 CLR
10:04 75.6 °F 62.1 °F 30.24 in Calm   1.8 mph 63% 0.00 in 872.30 W/m2 CLR
10:09 75.6 °F 62.1 °F 30.25 in East 2.3 mph 1.1 mph 63% 0.00 in 837.00 W/m2 CLR
10:14 75.6 °F 62.1 °F 30.25 in ESE 2.9 mph 1.8 mph 63% 0.00 in 854.20 W/m2 CLR
10:19 75.6 °F 62.1 °F 30.24 in South 1.2 mph 0.9 mph 63% 0.00 in 847.10 W/m2 CLR
10:24 75.6 °F 62.1 °F 30.25 in West 3.5 mph 2.0 mph 63% 0.00 in 847.10 W/m2 CLR
10:29 75.0 °F 61.6 °F 30.25 in SE 3.5 mph 1.6 mph 63% 0.00 in 849.10 W/m2 CLR
10:34 75.0 °F 62.5 °F 30.24 in ESE 2.9 mph 1.3 mph 65% 0.00 in 839.00 W/m2 CLR
10:39 75.0 °F 61.6 °F 30.25 in North 2.3 mph 1.8 mph 63% 0.00 in 839.00 W/m2 CLR
10:44 74.8 °F 62.3 °F 30.25 in ESE 1.2 mph 0.4 mph 65% 0.00 in 828.90 W/m2 CLR
10:49 75.0 °F 62.5 °F 30.24 in ESE 2.3 mph 0.9 mph 65% 0.00 in 827.90 W/m2 CLR
10:54 76.8 °F 62.3 °F 30.25 in NNW 3.5 mph 0.9 mph 61% 0.00 in 866.30 W/m2 CLR
10:59 76.3 °F 62.8 °F 30.24 in SSE 2.3 mph 0.9 mph 63% 0.00 in 872.30 W/m2 CLR
11:04 76.5 °F 62.9 °F 30.24 in SW 3.5 mph 1.6 mph 63% 0.00 in 865.30 W/m2 CLR
11:09 78.3 °F 62.8 °F 30.24 in SE 6.0 mph 3.1 mph 59% 0.00 in 865.30 W/m2 CLR
11:14 79.0 °F 62.9 °F 30.24 in South 2.3 mph 3.1 mph 58% 0.00 in 861.20 W/m2 CLR
11:19 78.3 °F 63.2 °F 30.24 in ESE 3.5 mph 2.0 mph 60% 0.00 in 886.50 W/m2 CLR
11:24 79.0 °F 63.4 °F 30.22 in North 4.6 mph 2.9 mph 59% 0.00 in 898.60 W/m2 CLR
11:29 78.8 °F 63.7 °F 30.23 in SW 2.9 mph 1.1 mph 60% 0.00 in 861.20 W/m2 CLR
11:34 79.3 °F 64.7 °F 30.22 in NE 1.2 mph 0.9 mph 61% 0.00 in 899.60 W/m2 CLR
11:39 79.9 °F 63.8 °F 30.23 in SE 3.5 mph 2.2 mph 58% 0.00 in 897.60 W/m2 CLR
11:44 80.1 °F 62.4 °F 30.22 in SSE 3.5 mph 3.4 mph 55% 0.00 in 899.60 W/m2 CLR
11:49 80.4 °F 62.8 °F 30.22 in ESE 3.5 mph 2.0 mph 55% 0.00 in 899.60 W/m2 CLR
11:54 80.4 °F 62.2 °F 30.22 in SSE 4.6 mph 2.2 mph 54% 0.00 in 900.60 W/m2 CLR
11:59 80.8 °F 62.6 °F 30.22 in SE 3.5 mph 2.9 mph 54% 0.00 in 1104.00 W/m2 CLR
12:04 81.0 °F 62.2 °F 30.22 in SE 3.5 mph 2.7 mph 53% 0.00 in 898.60 W/m2 SCT
12:09 80.1 °F 61.4 °F 30.22 in ENE 4.9 mph 2.2 mph 53% 0.00 in 898.60 W/m2 SCT
12:14 80.1 °F 61.4 °F 30.22 in NE 3.5 mph 2.5 mph 53% 0.00 in 892.50 W/m2 SCT
12:19 80.2 °F 62.6 °F 30.22 in East 3.5 mph 2.2 mph 55% 0.00 in 885.50 W/m2 SCT
12:24 80.8 °F 63.6 °F 30.21 in East 2.3 mph 1.6 mph 56% 0.00 in 885.50 W/m2 SCT
12:29 80.8 °F 63.6 °F 30.22 in South 2.9 mph 1.8 mph 56% 0.00 in 889.50 W/m2 SCT
12:34 80.1 °F 61.9 °F 30.22 in West 2.3 mph 2.5 mph 54% 0.00 in 886.50 W/m2 SCT
12:39 80.8 °F 62.1 °F 30.21 in SE 2.3 mph 2.0 mph 53% 0.00 in 886.50 W/m2 SCT
12:44 81.0 °F 62.7 °F 30.21 in NE 4.6 mph 2.5 mph 54% 0.00 in 894.60 W/m2 SCT
12:49 80.4 °F 61.7 °F 30.21 in West 2.3 mph 1.6 mph 53% 0.00 in 884.40 W/m2 SCT
12:54 81.0 °F 60.6 °F 30.21 in North 2.9 mph 2.0 mph 50% 0.00 in 873.30 W/m2 SCT
12:59 79.9 °F 60.1 °F 30.21 in East 5.8 mph 2.9 mph 51% 0.00 in 888.50 W/m2 SCT
13:04 80.4 °F 61.7 °F 30.21 in East 6.9 mph 4.7 mph 53% 0.00 in 888.50 W/m2 CLR
13:09 79.5 °F 60.9 °F 30.21 in East 2.3 mph 1.8 mph 53% 0.00 in 867.30 W/m2 CLR
13:14 79.3 °F 61.8 °F 30.21 in ESE 2.3 mph 1.6 mph 55% 0.00 in 867.30 W/m2 CLR
13:19 79.2 °F 61.6 °F 30.21 in South 3.5 mph 1.3 mph 55% 0.00 in 855.20 W/m2 CLR
13:24 79.3 °F 61.2 °F 30.21 in SW 2.3 mph 1.6 mph 54% 0.00 in 863.20 W/m2 CLR
13:29 79.5 °F 61.4 °F 30.21 in NNE 2.9 mph 0.9 mph 54% 0.00 in 856.20 W/m2 CLR
13:34 80.1 °F 62.4 °F 30.21 in West 3.5 mph 1.8 mph 55% 0.00 in 874.30 W/m2 CLR
13:39 79.5 °F 60.9 °F 30.20 in West 1.2 mph 1.8 mph 53% 0.00 in 858.20 W/m2 CLR
13:44 79.2 °F 61.1 °F 30.20 in ESE 2.3 mph 1.1 mph 54% 0.00 in 844.10 W/m2 CLR
13:49 78.4 °F 60.9 °F 30.20 in WSW 2.3 mph 1.8 mph 55% 0.00 in 844.10 W/m2 CLR
13:54 78.3 °F 60.8 °F 30.20 in ENE 1.2 mph 0.7 mph 55% 0.00 in 832.90 W/m2 CLR
13:59 78.3 °F 62.3 °F 30.20 in WNW 3.5 mph 1.8 mph 58% 0.00 in 794.60 W/m2 CLR
14:04 77.5 °F 62.1 °F 30.20 in South 3.5 mph 2.0 mph 59% 0.00 in 753.20 W/m2 CLR
14:09 77.7 °F 62.2 °F 30.20 in NE 4.0 mph 2.7 mph 59% 0.00 in 695.60 W/m2 CLR
14:14 77.5 °F 62.1 °F 30.20 in North 2.3 mph 0.9 mph 59% 0.00 in 695.60 W/m2 CLR
14:19 79.2 °F 63.1 °F 30.19 in South 2.3 mph 0.9 mph 58% 0.00 in 847.10 W/m2 CLR
14:24 79.9 °F 62.3 °F 30.19 in ENE 1.2 mph 1.1 mph 55% 0.00 in 1159.00 W/m2 CLR
14:29 79.9 °F 62.8 °F 30.19 in NNW 4.9 mph 2.2 mph 56% 0.00 in 1152.00 W/m2 CLR
14:34 80.2 °F 62.1 °F 30.19 in ENE 5.8 mph 2.2 mph 54% 0.00 in 890.50 W/m2 CLR
14:39 81.0 °F 62.7 °F 30.19 in South 2.0 mph 1.6 mph 54% 0.00 in 891.50 W/m2 CLR
14:44 81.0 °F 61.1 °F 30.19 in SE 4.6 mph 2.0 mph 51% 0.00 in 885.50 W/m2 CLR
14:49 81.3 °F 61.5 °F 30.19 in NNE 4.6 mph 3.6 mph 51% 0.00 in 889.50 W/m2 CLR
14:54 80.8 °F 62.1 °F 30.19 in ENE 4.0 mph 2.5 mph 53% 0.00 in 890.50 W/m2 CLR
14:59 79.5 °F 61.9 °F 30.18 in South 3.5 mph 2.5 mph 55% 0.00 in 879.40 W/m2 CLR
15:04 80.8 °F 63.1 °F 30.18 in ESE 2.3 mph 1.3 mph 55% 0.00 in 838.00 W/m2 CLR
15:09 80.1 °F 61.9 °F 30.18 in South 2.3 mph 1.1 mph 54% 0.00 in 838.00 W/m2 CLR
15:14 80.1 °F 62.4 °F 30.18 in NE 0.9 mph 0.4 mph 55% 0.00 in 854.20 W/m2 CLR
15:19 79.9 °F 62.3 °F 30.18 in East 2.3 mph 1.3 mph 55% 0.00 in 854.20 W/m2 CLR
15:24 79.5 °F 61.9 °F 30.18 in East 1.2 mph 1.1 mph 55% 0.00 in 888.50 W/m2 CLR
15:29 79.9 °F 62.3 °F 30.18 in ESE 3.5 mph 2.2 mph 55% 0.00 in 852.10 W/m2 CLR
15:34 79.3 °F 61.8 °F 30.18 in North 4.0 mph 3.4 mph 55% 0.00 in 859.20 W/m2 CLR
15:39 78.8 °F 62.8 °F 30.17 in ENE 2.3 mph 1.6 mph 58% 0.00 in 845.10 W/m2 CLR
15:44 79.2 °F 62.1 °F 30.17 in WSW 2.3 mph 1.6 mph 56% 0.00 in 845.10 W/m2 CLR
15:49 79.5 °F 61.9 °F 30.17 in WSW 2.3 mph 1.3 mph 55% 0.00 in 854.20 W/m2 CLR
15:54 79.9 °F 62.3 °F 30.17 in ESE 4.0 mph 1.3 mph 55% 0.00 in 873.30 W/m2 CLR
15:59 80.2 °F 62.6 °F 30.17 in NNE 3.5 mph 2.0 mph 55% 0.00 in 849.10 W/m2 CLR
16:04 80.8 °F 62.6 °F 30.16 in South 4.0 mph 2.7 mph 54% 0.00 in 873.30 W/m2 CLR
16:09 81.3 °F 63.1 °F 30.16 in West 2.3 mph 1.6 mph 54% 0.00 in 881.40 W/m2 CLR
16:14 81.9 °F 63.1 °F 30.16 in South 1.2 mph 1.8 mph 53% 0.00 in 881.40 W/m2 CLR
16:19 82.6 °F 62.1 °F 30.16 in ESE 2.3 mph 1.8 mph 50% 0.00 in 890.50 W/m2 CLR
16:24 81.3 °F 60.9 °F 30.16 in ESE 2.3 mph 1.1 mph 50% 0.00 in 886.50 W/m2 CLR
16:29 80.2 °F 59.9 °F 30.16 in East 3.5 mph 2.7 mph 50% 0.00 in 863.20 W/m2 CLR
16:34 80.1 °F 61.9 °F 30.16 in SSE 2.3 mph 1.3 mph 54% 0.00 in 863.20 W/m2 CLR
16:39 79.9 °F 62.3 °F 30.16 in West 3.5 mph 2.0 mph 55% 0.00 in 819.80 W/m2 CLR
16:44 79.3 °F 61.8 °F 30.15 in West 1.2 mph 0.4 mph 55% 0.00 in 836.00 W/m2 CLR
16:49 79.5 °F 61.9 °F 30.16 in ENE 3.5 mph 2.2 mph 55% 0.00 in 840.00 W/m2 CLR
16:54 81.3 °F 63.1 °F 30.16 in South 2.3 mph 1.8 mph 54% 0.00 in 839.00 W/m2 CLR
16:59 81.0 °F 62.7 °F 30.16 in NE 3.5 mph 2.0 mph 54% 0.00 in 876.40 W/m2 CLR
17:04 80.4 °F 61.7 °F 30.16 in South 2.3 mph 1.1 mph 53% 0.00 in 847.10 W/m2 CLR
17:09 80.4 °F 62.8 °F 30.16 in SSW 3.5 mph 2.9 mph 55% 0.00 in 850.10 W/m2 CLR
17:14 80.1 °F 62.4 °F 30.16 in ESE 2.3 mph 2.2 mph 55% 0.00 in 850.10 W/m2 CLR
17:19 79.5 °F 61.4 °F 30.16 in WSW 2.9 mph 1.8 mph 54% 0.00 in 829.90 W/m2 CLR
17:24 80.1 °F 61.9 °F 30.15 in West 4.0 mph 2.5 mph 54% 0.00 in 821.80 W/m2 CLR
17:29 79.5 °F 61.4 °F 30.15 in NW 4.6 mph 3.1 mph 54% 0.00 in 833.90 W/m2 CLR
17:34 80.4 °F 62.2 °F 30.15 in ENE 2.0 mph 0.7 mph 54% 0.00 in 836.00 W/m2 CLR
17:39 80.8 °F 62.1 °F 30.15 in ESE 2.3 mph 0.9 mph 53% 0.00 in 849.10 W/m2 CLR
17:44 79.0 °F 61.9 °F 30.14 in West 3.5 mph 1.1 mph 56% 0.00 in 824.90 W/m2 CLR
17:49 79.3 °F 61.8 °F 30.14 in East 2.3 mph 1.6 mph 55% 0.00 in 532.00 W/m2 CLR
17:54 80.1 °F 61.9 °F 30.14 in ESE 3.5 mph 1.8 mph 54% 0.00 in 532.00 W/m2 CLR
17:59 81.0 °F 63.3 °F 30.14 in WNW 3.5 mph 2.2 mph 55% 0.00 in 731.90 W/m2 CLR
18:04 80.4 °F 62.8 °F 30.14 in SSW 1.2 mph 2.2 mph 55% 0.00 in 844.10 W/m2 CLR
18:09 80.1 °F 62.4 °F 30.14 in NE 4.6 mph 2.7 mph 55% 0.00 in 844.10 W/m2 CLR
18:14 80.1 °F 62.9 °F 30.14 in SSE 4.0 mph 1.3 mph 56% 0.00 in 830.90 W/m2 CLR
18:19 79.3 °F 61.8 °F 30.13 in SSE 3.5 mph 2.7 mph 55% 0.00 in 814.80 W/m2 CLR
18:24 78.8 °F 61.8 °F 30.13 in West 3.5 mph 2.2 mph 56% 0.00 in 808.70 W/m2 CLR
18:29 79.5 °F 61.9 °F 30.14 in SSE 2.3 mph 2.0 mph 55% 0.00 in 428.90 W/m2 CLR
18:34 78.8 °F 61.8 °F 30.14 in SSE 2.9 mph 2.0 mph 56% 0.00 in 364.30 W/m2 CLR
18:39 76.8 °F 62.3 °F 30.13 in ENE 2.3 mph 1.8 mph 61% 0.00 in 359.30 W/m2 CLR
18:44 76.5 °F 62.0 °F 30.13 in ESE 3.5 mph 1.6 mph 61% 0.00 in 359.30 W/m2 CLR
18:49 76.8 °F 62.3 °F 30.14 in South 3.5 mph 0.9 mph 61% 0.00 in 367.30 W/m2 CLR
18:54 77.2 °F 62.7 °F 30.13 in NNE 1.2 mph 0.2 mph 61% 0.00 in 364.30 W/m2 CLR
18:59 76.8 °F 62.3 °F 30.13 in NNW 1.2 mph 0.2 mph 61% 0.00 in 354.20 W/m2 CLR
19:04 76.8 °F 62.3 °F 30.13 in Calm   0.7 mph 61% 0.00 in 342.10 W/m2 CLR
19:09 76.5 °F 62.0 °F 30.13 in NE 1.2 mph 0.2 mph 61% 0.00 in 322.90 W/m2 CLR
19:14 75.9 °F 61.5 °F 30.13 in East 1.2 mph 0.9 mph 61% 0.00 in 322.90 W/m2 CLR
19:19 75.6 °F 62.1 °F 30.13 in SSE 2.3 mph 0.7 mph 63% 0.00 in 310.80 W/m2 CLR
19:24 75.4 °F 61.9 °F 30.13 in SSE 2.3 mph   63% 0.00 in 314.80 W/m2 CLR
19:29 74.8 °F 61.4 °F 30.13 in ESE 1.2 mph 0.7 mph 63% 0.00 in 313.80 W/m2 CLR
19:34 74.7 °F 61.2 °F 30.13 in SE 2.3 mph 1.3 mph 63% 0.00 in 305.70 W/m2 CLR
19:39 74.5 °F 61.1 °F 30.13 in Calm   0.2 mph 63% 0.00 in 299.70 W/m2 CLR
19:44 74.3 °F 61.8 °F 30.13 in WSW 2.3 mph 0.4 mph 65% 0.00 in 302.70 W/m2 CLR
19:49 73.9 °F 61.4 °F 30.13 in ENE 3.5 mph 1.1 mph 65% 0.00 in 304.70 W/m2 CLR
19:54 73.9 °F 60.5 °F 30.13 in ENE 1.2 mph 1.1 mph 63% 0.00 in 311.80 W/m2 CLR
19:59 73.6 °F 60.2 °F 30.13 in North 2.3 mph 0.7 mph 63% 0.00 in 306.70 W/m2 CLR
20:04 73.6 °F 61.1 °F 30.13 in Calm   0.4 mph 65% 0.00 in 301.70 W/m2 CLR
20:09 73.0 °F 60.6 °F 30.14 in West 1.2 mph 0.2 mph 65% 0.00 in 296.60 W/m2 CLR
20:14 73.0 °F 60.6 °F 30.14 in Calm     65% 0.00 in 296.60 W/m2 CLR
20:19 73.0 °F 60.6 °F 30.13 in Calm     65% 0.00 in 282.50 W/m2 CLR
20:24 72.5 °F 60.1 °F 30.13 in NNE 1.2 mph 0.2 mph 65% 0.00 in 266.30 W/m2 CLR
20:29 72.0 °F 59.6 °F 30.14 in Calm     65% 0.00 in 259.30 W/m2 CLR
20:34 71.4 °F 59.5 °F 30.14 in Calm   0.2 mph 66% 0.00 in 243.10 W/m2 CLR
20:39 71.1 °F 59.1 °F 30.14 in Calm     66% 0.00 in 224.90 W/m2 CLR
20:44 70.5 °F 59.9 °F 30.13 in Calm     69% 0.00 in 215.80 W/m2 CLR
20:49 70.3 °F 60.1 °F 30.13 in Calm     70% 0.00 in 196.60 W/m2 CLR
20:54 70.2 °F 59.9 °F 30.13 in Calm     70% 0.00 in 196.60 W/m2 CLR
20:59 69.4 °F 60.4 °F 30.13 in Calm     73% 0.00 in 145.10 W/m2 CLR
21:04 69.3 °F 59.5 °F 30.13 in Calm     71% 0.00 in 0.00 W/m2 CLR
21:09 68.4 °F 59.4 °F 30.13 in Calm     73% 0.00 in 0.00 W/m2 CLR
21:14 68.2 °F 59.6 °F 30.13 in Calm     74% 0.00 in 0.00 W/m2 CLR
21:19 67.8 °F 59.2 °F 30.13 in Calm     74% 0.00 in 0.00 W/m2 CLR
21:24 67.5 °F 59.3 °F 30.14 in Calm     75% 0.00 in 0.00 W/m2 CLR
21:29 67.1 °F 58.9 °F 30.13 in Calm     75% 0.00 in 0.00 W/m2 CLR
21:34 66.6 °F 58.8 °F 30.14 in Calm     76% 0.00 in 0.00 W/m2 CLR
21:39 66.6 °F 58.8 °F 30.14 in Calm     76% 0.00 in 0.00 W/m2 CLR
21:44 65.8 °F 58.8 °F 30.14 in Calm     78% 0.00 in 0.00 W/m2 CLR
21:49 65.7 °F 59.0 °F 30.13 in Calm     79% 0.00 in 0.00 W/m2 CLR
21:54 65.1 °F 58.8 °F 30.14 in Calm     80% 0.00 in 0.00 W/m2 CLR
21:59 64.9 °F 59.0 °F 30.13 in Calm     81% 0.00 in 0.00 W/m2 CLR
22:04 64.9 °F 59.0 °F 30.13 in Calm     81% 0.00 in 0.00 W/m2 CLR
22:09 64.6 °F 58.6 °F 30.13 in Calm     81% 0.00 in 0.00 W/m2 CLR
22:14 64.0 °F 58.8 °F 30.13 in Calm     83% 0.00 in 0.00 W/m2 CLR
22:19 64.0 °F 59.8 °F 30.13 in Calm     86% 0.00 in 0.00 W/m2 CLR
22:24 63.9 °F 59.6 °F 30.13 in Calm     86% 0.00 in 0.00 W/m2 CLR
22:29 63.9 °F 59.6 °F 30.13 in Calm     86% 0.00 in 0.00 W/m2 CLR
22:34 63.9 °F 59.6 °F 30.13 in Calm     86% 0.00 in 0.00 W/m2 CLR
22:39 63.9 °F 59.6 °F 30.13 in Calm     86% 0.00 in 0.00 W/m2 CLR
22:44 64.4 °F 60.1 °F 30.13 in Calm     86% 0.00 in 0.00 W/m2 CLR
22:49 63.9 °F 59.6 °F 30.13 in Calm     86% 0.00 in 0.00 W/m2 CLR
22:54 63.9 °F 59.6 °F 30.13 in Calm     86% 0.00 in 0.00 W/m2 CLR
22:59 63.1 °F 59.5 °F 30.13 in Calm     88% 0.00 in 0.00 W/m2 CLR
23:04 63.1 °F 59.5 °F 30.14 in Calm     88% 0.00 in 0.00 W/m2 SCT
23:09 63.1 °F 59.5 °F 30.14 in Calm     88% 0.00 in 0.00 W/m2 SCT
23:14 63.1 °F 59.5 °F 30.14 in Calm     88% 0.00 in 0.00 W/m2 SCT
23:19 63.0 °F 59.3 °F 30.14 in Calm     88% 0.00 in 0.00 W/m2 SCT
23:24 63.0 °F 59.3 °F 30.14 in Calm     88% 0.00 in 0.00 W/m2 SCT
23:29 62.8 °F 59.2 °F 30.13 in Calm     88% 0.00 in 0.00 W/m2 SCT
23:34 62.4 °F 59.4 °F 30.13 in Calm     90% 0.00 in 0.00 W/m2 SCT
23:39 62.2 °F 59.6 °F 30.13 in Calm     91% 0.00 in 0.00 W/m2 SCT
23:44 62.2 °F 59.6 °F 30.14 in Calm   0.2 mph 91% 0.00 in 0.00 W/m2 SCT
23:49 61.9 °F 59.2 °F 30.13 in Calm     91% 0.00 in 0.00 W/m2 SCT
23:54 62.1 °F 60.0 °F 30.13 in West 1.2 mph 0.2 mph 93% 0.00 in 0.00 W/m2 SCT
23:59 62.2 °F 59.6 °F 30.13 in Calm   0.2 mph 91% 0.00 in 0.00 W/m2 SCT
Juneau County Weather
Compliments of Weather Underground - 5.75 mb